sensor_id;sensor_type;location;lat;lon;timestamp;pressure;altitude;pressure_sealevel;temperature;humidity
23433;BME280;41331;45.412;10.992;2024-03-23T00:54:27;100812.72;;;13.02;90.23
23433;BME280;41331;45.412;10.992;2024-03-23T00:56:54;100811.38;;;13.08;90.19
23433;BME280;41331;45.412;10.992;2024-03-23T00:59:21;100808.09;;;13.15;89.05
23433;BME280;41331;45.412;10.992;2024-03-23T01:01:48;100809.44;;;13.09;89.46
23433;BME280;41331;45.412;10.992;2024-03-23T01:04:15;100808.25;;;12.98;89.72
23433;BME280;41331;45.412;10.992;2024-03-23T01:06:42;100799.06;;;13.02;89.58
23433;BME280;41331;45.412;10.992;2024-03-23T01:09:08;100795.69;;;13.17;89.88
23433;BME280;41331;45.412;10.992;2024-03-23T01:11:37;100799.22;;;13.18;89.09
23433;BME280;41331;45.412;10.992;2024-03-23T01:14:05;100792.03;;;13.13;89.79
23433;BME280;41331;45.412;10.992;2024-03-23T01:16:32;100794.09;;;13.16;89.67
23433;BME280;41331;45.412;10.992;2024-03-23T01:18:59;100793.59;;;13.02;90.71
23433;BME280;41331;45.412;10.992;2024-03-23T01:21:26;100782.19;;;13.00;90.35
23433;BME280;41331;45.412;10.992;2024-03-23T01:23:53;100794.31;;;13.11;89.83
23433;BME280;41331;45.412;10.992;2024-03-23T01:26:19;100778.78;;;13.24;88.93
23433;BME280;41331;45.412;10.992;2024-03-23T01:28:46;100788.50;;;13.13;88.79
23433;BME280;41331;45.412;10.992;2024-03-23T01:31:12;100787.84;;;12.95;90.18
23433;BME280;41331;45.412;10.992;2024-03-23T01:33:39;100790.78;;;12.90;89.74
23433;BME280;41331;45.412;10.992;2024-03-23T01:36:06;100792.50;;;12.82;90.61
23433;BME280;41331;45.412;10.992;2024-03-23T01:38:32;100795.88;;;12.79;90.27
23433;BME280;41331;45.412;10.992;2024-03-23T01:40:59;100778.75;;;12.91;90.10
23433;BME280;41331;45.412;10.992;2024-03-23T01:43:26;100784.53;;;12.89;90.51
23433;BME280;41331;45.412;10.992;2024-03-23T01:45:53;100776.94;;;12.95;90.80
23433;BME280;41331;45.412;10.992;2024-03-23T01:48:20;100780.81;;;12.94;90.12
23433;BME280;41331;45.412;10.992;2024-03-23T01:50:47;100774.53;;;12.93;89.27
23433;BME280;41331;45.412;10.992;2024-03-23T01:53:14;100776.03;;;12.91;90.11
23433;BME280;41331;45.412;10.992;2024-03-23T01:55:44;100778.28;;;12.89;90.18
23433;BME280;41331;45.412;10.992;2024-03-23T01:58:10;100774.16;;;12.83;90.19
23433;BME280;41331;45.412;10.992;2024-03-23T02:00:37;100766.41;;;12.85;90.74
23433;BME280;41331;45.412;10.992;2024-03-23T02:03:25;100762.88;;;12.84;90.79
23433;BME280;41331;45.412;10.992;2024-03-23T02:05:53;100763.81;;;12.88;88.50
23433;BME280;41331;45.412;10.992;2024-03-23T02:08:21;100758.50;;;12.92;88.29
23433;BME280;41331;45.412;10.992;2024-03-23T02:10:49;100750.31;;;12.92;87.72
23433;BME280;41331;45.412;10.992;2024-03-23T02:13:17;100762.56;;;12.86;88.49
23433;BME280;41331;45.412;10.992;2024-03-23T02:15:44;100746.25;;;12.77;89.73
23433;BME280;41331;45.412;10.992;2024-03-23T02:18:11;100753.59;;;12.64;91.85
23433;BME280;41331;45.412;10.992;2024-03-23T02:20:38;100750.53;;;12.66;90.49
23433;BME280;41331;45.412;10.992;2024-03-23T02:23:05;100748.22;;;12.56;92.00
23433;BME280;41331;45.412;10.992;2024-03-23T02:25:35;100746.00;;;12.49;92.90
23433;BME280;41331;45.412;10.992;2024-03-23T02:28:02;100742.97;;;12.51;92.89
23433;BME280;41331;45.412;10.992;2024-03-23T02:30:29;100738.09;;;12.35;93.77
23433;BME280;41331;45.412;10.992;2024-03-23T02:32:55;100739.56;;;12.33;94.53
23433;BME280;41331;45.412;10.992;2024-03-23T02:35:22;100730.81;;;12.18;95.09
23433;BME280;41331;45.412;10.992;2024-03-23T02:37:49;100740.94;;;12.18;94.65
23433;BME280;41331;45.412;10.992;2024-03-23T02:40:17;100728.69;;;12.24;93.62
23433;BME280;41331;45.412;10.992;2024-03-23T02:42:43;100730.13;;;12.30;94.34
23433;BME280;41331;45.412;10.992;2024-03-23T02:45:13;100730.22;;;12.34;94.51
23433;BME280;41331;45.412;10.992;2024-03-23T02:47:40;100728.50;;;12.29;94.08
23433;BME280;41331;45.412;10.992;2024-03-23T02:50:08;100729.50;;;12.25;94.37
23433;BME280;41331;45.412;10.992;2024-03-23T02:52:36;100719.66;;;12.11;94.98
23433;BME280;41331;45.412;10.992;2024-03-23T02:55:03;100719.44;;;12.16;95.21
23433;BME280;41331;45.412;10.992;2024-03-23T02:57:30;100724.56;;;12.39;94.02
23433;BME280;41331;45.412;10.992;2024-03-23T02:59:57;100725.38;;;12.18;94.80
23433;BME280;41331;45.412;10.992;2024-03-23T03:02:24;100725.09;;;12.11;95.37
23433;BME280;41331;45.412;10.992;2024-03-23T03:04:51;100719.16;;;12.09;95.68
23433;BME280;41331;45.412;10.992;2024-03-23T03:07:17;100724.00;;;12.04;96.93
23433;BME280;41331;45.412;10.992;2024-03-23T03:09:44;100720.31;;;12.08;96.32
23433;BME280;41331;45.412;10.992;2024-03-23T03:12:12;100716.44;;;12.09;97.19
23433;BME280;41331;45.412;10.992;2024-03-23T03:14:38;100714.00;;;12.16;95.79
23433;BME280;41331;45.412;10.992;2024-03-23T03:17:05;100704.41;;;12.10;96.80
23433;BME280;41331;45.412;10.992;2024-03-23T03:19:32;100704.81;;;12.00;97.92
23433;BME280;41331;45.412;10.992;2024-03-23T03:21:58;100700.16;;;12.01;98.14
23433;BME280;41331;45.412;10.992;2024-03-23T03:24:25;100702.88;;;12.01;97.50
23433;BME280;41331;45.412;10.992;2024-03-23T03:26:52;100708.44;;;12.04;97.84
23433;BME280;41331;45.412;10.992;2024-03-23T03:29:18;100701.81;;;12.14;96.86
23433;BME280;41331;45.412;10.992;2024-03-23T03:31:45;100697.63;;;11.96;97.65
23433;BME280;41331;45.412;10.992;2024-03-23T03:34:12;100695.50;;;12.01;96.89
23433;BME280;41331;45.412;10.992;2024-03-23T03:36:39;100696.47;;;11.97;98.50
23433;BME280;41331;45.412;10.992;2024-03-23T03:39:06;100693.56;;;12.02;97.60
23433;BME280;41331;45.412;10.992;2024-03-23T03:41:33;100689.22;;;12.01;97.50
23433;BME280;41331;45.412;10.992;2024-03-23T03:44:00;100681.31;;;12.08;97.40
23433;BME280;41331;45.412;10.992;2024-03-23T03:46:29;100680.06;;;12.05;97.51
23433;BME280;41331;45.412;10.992;2024-03-23T03:48:56;100681.06;;;12.01;97.14
23433;BME280;41331;45.412;10.992;2024-03-23T03:51:22;100675.31;;;11.93;97.72
23433;BME280;41331;45.412;10.992;2024-03-23T03:53:49;100665.94;;;12.03;98.13
23433;BME280;41331;45.412;10.992;2024-03-23T03:56:15;100663.47;;;11.89;98.53
23433;BME280;41331;45.412;10.992;2024-03-23T03:58:43;100661.56;;;11.81;98.66
23433;BME280;41331;45.412;10.992;2024-03-23T04:01:09;100664.63;;;11.80;99.85
23433;BME280;41331;45.412;10.992;2024-03-23T04:03:36;100653.56;;;11.85;99.31
23433;BME280;41331;45.412;10.992;2024-03-23T04:06:03;100649.22;;;11.84;100.00
23433;BME280;41331;45.412;10.992;2024-03-23T04:08:29;100647.94;;;11.81;100.00
23433;BME280;41331;45.412;10.992;2024-03-23T04:10:56;100651.00;;;11.80;99.39
23433;BME280;41331;45.412;10.992;2024-03-23T04:13:23;100654.03;;;11.78;99.83
23433;BME280;41331;45.412;10.992;2024-03-23T04:15:54;100653.25;;;11.78;100.00
23433;BME280;41331;45.412;10.992;2024-03-23T04:18:21;100655.19;;;11.77;100.00
23433;BME280;41331;45.412;10.992;2024-03-23T04:20:48;100648.94;;;11.77;99.61
23433;BME280;41331;45.412;10.992;2024-03-23T04:23:15;100648.94;;;11.77;99.97
23433;BME280;41331;45.412;10.992;2024-03-23T04:25:42;100651.00;;;11.80;100.00
23433;BME280;41331;45.412;10.992;2024-03-23T04:28:08;100647.16;;;11.81;99.08
23433;BME280;41331;45.412;10.992;2024-03-23T04:30:35;100643.31;;;11.73;99.72
23433;BME280;41331;45.412;10.992;2024-03-23T04:33:01;100648.00;;;11.43;100.00
23433;BME280;41331;45.412;10.992;2024-03-23T04:35:28;100643.34;;;11.44;100.00
23433;BME280;41331;45.412;10.992;2024-03-23T04:37:55;100632.41;;;11.52;100.00
23433;BME280;41331;45.412;10.992;2024-03-23T04:40:26;100629.03;;;11.55;100.00
23433;BME280;41331;45.412;10.992;2024-03-23T04:42:52;100638.97;;;11.51;100.00
23433;BME280;41331;45.412;10.992;2024-03-23T04:45:19;100630.97;;;11.55;100.00
23433;BME280;41331;45.412;10.992;2024-03-23T04:47:46;100631.25;;;11.53;100.00
23433;BME280;41331;45.412;10.992;2024-03-23T04:50:13;100631.59;;;11.52;100.00
23433;BME280;41331;45.412;10.992;2024-03-23T04:52:40;100648.00;;;11.43;100.00
23433;BME280;41331;45.412;10.992;2024-03-23T04:55:09;100640.50;;;11.40;100.00
23433;BME280;41331;45.412;10.992;2024-03-23T04:57:36;100633.91;;;11.41;100.00
23433;BME280;41331;45.412;10.992;2024-03-23T05:00:03;100625.25;;;11.39;100.00
23433;BME280;41331;45.412;10.992;2024-03-23T05:02:39;100627.78;;;11.44;100.00
23433;BME280;41331;45.412;10.992;2024-03-23T05:05:05;100613.06;;;11.45;100.00
23433;BME280;41331;45.412;10.992;2024-03-23T05:07:33;100627.97;;;11.39;100.00
23433;BME280;41331;45.412;10.992;2024-03-23T05:10:00;100618.88;;;11.35;100.00
23433;BME280;41331;45.412;10.992;2024-03-23T05:12:27;100615.63;;;11.41;100.00
23433;BME280;41331;45.412;10.992;2024-03-23T05:14:54;100609.19;;;11.46;100.00
23433;BME280;41331;45.412;10.992;2024-03-23T05:17:20;100611.50;;;11.35;100.00
23433;BME280;41331;45.412;10.992;2024-03-23T05:19:47;100610.03;;;11.38;100.00
23433;BME280;41331;45.412;10.992;2024-03-23T05:22:14;100612.16;;;11.32;100.00
23433;BME280;41331;45.412;10.992;2024-03-23T05:24:41;100601.50;;;11.39;100.00
23433;BME280;41331;45.412;10.992;2024-03-23T05:27:07;100606.31;;;11.43;99.71
23433;BME280;41331;45.412;10.992;2024-03-23T05:29:34;100596.69;;;11.45;100.00
23433;BME280;41331;45.412;10.992;2024-03-23T05:32:01;100591.72;;;11.47;100.00
23433;BME280;41331;45.412;10.992;2024-03-23T05:34:27;100593.00;;;11.50;100.00
23433;BME280;41331;45.412;10.992;2024-03-23T05:36:55;100594.84;;;11.58;100.00
23433;BME280;41331;45.412;10.992;2024-03-23T05:39:22;100600.50;;;11.74;98.85
23433;BME280;41331;45.412;10.992;2024-03-23T05:41:48;100596.75;;;11.87;97.16
23433;BME280;41331;45.412;10.992;2024-03-23T05:44:15;100594.63;;;11.92;96.45
23433;BME280;41331;45.412;10.992;2024-03-23T05:46:42;100593.88;;;12.25;94.06
23433;BME280;41331;45.412;10.992;2024-03-23T05:49:09;100586.00;;;12.57;93.03
23433;BME280;41331;45.412;10.992;2024-03-23T05:51:35;100583.88;;;12.87;89.93
23433;BME280;41331;45.412;10.992;2024-03-23T05:54:02;100584.00;;;13.39;86.76
23433;BME280;41331;45.412;10.992;2024-03-23T05:56:29;100589.56;;;14.36;80.26
23433;BME280;41331;45.412;10.992;2024-03-23T05:58:56;100584.25;;;15.02;75.81
23433;BME280;41331;45.412;10.992;2024-03-23T06:01:22;100588.06;;;14.82;76.09
23433;BME280;41331;45.412;10.992;2024-03-23T06:03:49;100586.88;;;14.52;78.92
23433;BME280;41331;45.412;10.992;2024-03-23T06:06:16;100583.19;;;13.63;81.99
23433;BME280;41331;45.412;10.992;2024-03-23T06:08:43;100585.03;;;13.35;86.57
23433;BME280;41331;45.412;10.992;2024-03-23T06:11:09;100584.69;;;13.12;87.33
23433;BME280;41331;45.412;10.992;2024-03-23T06:13:36;100590.50;;;12.98;89.04
23433;BME280;41331;45.412;10.992;2024-03-23T06:16:03;100581.06;;;13.08;87.63
23433;BME280;41331;45.412;10.992;2024-03-23T06:18:30;100584.59;;;13.33;85.76
23433;BME280;41331;45.412;10.992;2024-03-23T06:20:56;100588.47;;;13.32;85.82
23433;BME280;41331;45.412;10.992;2024-03-23T06:23:23;100582.53;;;13.17;88.21
23433;BME280;41331;45.412;10.992;2024-03-23T06:25:50;100577.72;;;13.63;84.11
23433;BME280;41331;45.412;10.992;2024-03-23T06:28:17;100577.72;;;15.58;74.07
23433;BME280;41331;45.412;10.992;2024-03-23T06:30:44;100573.00;;;17.01;67.78
23433;BME280;41331;45.412;10.992;2024-03-23T06:33:11;100568.69;;;18.88;57.77
23433;BME280;41331;45.412;10.992;2024-03-23T06:35:38;100571.69;;;19.20;54.80
23433;BME280;41331;45.412;10.992;2024-03-23T06:38:04;100570.94;;;19.30;54.71
23433;BME280;41331;45.412;10.992;2024-03-23T06:40:31;100567.94;;;19.50;53.89
23433;BME280;41331;45.412;10.992;2024-03-23T06:42:58;100565.78;;;19.91;53.13
23433;BME280;41331;45.412;10.992;2024-03-23T06:45:25;100562.59;;;19.82;52.12
23433;BME280;41331;45.412;10.992;2024-03-23T06:47:51;100558.50;;;20.95;48.76
23433;BME280;41331;45.412;10.992;2024-03-23T06:50:18;100567.97;;;21.33;47.34
23433;BME280;41331;45.412;10.992;2024-03-23T06:52:45;100560.47;;;20.69;49.75
23433;BME280;41331;45.412;10.992;2024-03-23T06:55:12;100550.13;;;21.49;47.38
23433;BME280;41331;45.412;10.992;2024-03-23T06:57:38;100550.59;;;22.87;44.38
23433;BME280;41331;45.412;10.992;2024-03-23T07:00:06;100547.19;;;21.98;46.33
23433;BME280;41331;45.412;10.992;2024-03-23T07:02:36;100541.59;;;22.09;46.09
23433;BME280;41331;45.412;10.992;2024-03-23T07:05:03;100545.59;;;22.05;45.96
23433;BME280;41331;45.412;10.992;2024-03-23T07:07:30;100540.31;;;22.32;46.56
23433;BME280;41331;45.412;10.992;2024-03-23T07:09:56;100535.09;;;22.41;45.32
23433;BME280;41331;45.412;10.992;2024-03-23T07:12:23;100527.81;;;22.61;45.33
23433;BME280;41331;45.412;10.992;2024-03-23T07:14:50;100523.00;;;23.51;42.36
23433;BME280;41331;45.412;10.992;2024-03-23T07:17:17;100512.97;;;23.65;41.90
23433;BME280;41331;45.412;10.992;2024-03-23T07:19:44;100518.09;;;23.97;41.21
23433;BME280;41331;45.412;10.992;2024-03-23T07:22:11;100508.53;;;24.56;39.49
23433;BME280;41331;45.412;10.992;2024-03-23T07:24:39;100507.97;;;24.41;39.32
23433;BME280;41331;45.412;10.992;2024-03-23T07:27:06;100507.72;;;24.28;41.00
23433;BME280;41331;45.412;10.992;2024-03-23T07:29:36;100497.69;;;24.34;39.92
23433;BME280;41331;45.412;10.992;2024-03-23T07:32:03;100504.06;;;24.85;38.74
23433;BME280;41331;45.412;10.992;2024-03-23T07:34:30;100499.56;;;24.68;39.72
23433;BME280;41331;45.412;10.992;2024-03-23T07:36:56;100511.78;;;24.97;39.08
23433;BME280;41331;45.412;10.992;2024-03-23T07:39:23;100501.50;;;24.47;40.34
23433;BME280;41331;45.412;10.992;2024-03-23T07:41:49;100497.44;;;22.43;44.89
23433;BME280;41331;45.412;10.992;2024-03-23T07:44:16;100507.44;;;21.46;47.56
23433;BME280;41331;45.412;10.992;2024-03-23T07:46:43;100501.63;;;23.11;44.51
23433;BME280;41331;45.412;10.992;2024-03-23T07:49:09;100502.22;;;22.88;46.40
23433;BME280;41331;45.412;10.992;2024-03-23T07:51:36;100491.31;;;24.10;42.76
23433;BME280;41331;45.412;10.992;2024-03-23T07:54:05;100495.53;;;24.96;41.16
23433;BME280;41331;45.412;10.992;2024-03-23T07:56:32;100492.41;;;25.14;40.29
23433;BME280;41331;45.412;10.992;2024-03-23T07:58:58;100488.59;;;25.47;41.03
23433;BME280;41331;45.412;10.992;2024-03-23T08:01:25;100486.50;;;25.12;40.96
23433;BME280;41331;45.412;10.992;2024-03-23T08:03:52;100465.09;;;26.21;38.48
23433;BME280;41331;45.412;10.992;2024-03-23T08:06:20;100468.22;;;25.11;39.92
23433;BME280;41331;45.412;10.992;2024-03-23T08:08:52;100463.28;;;25.38;39.85
23433;BME280;41331;45.412;10.992;2024-03-23T08:11:44;100466.81;;;25.98;37.57
23433;BME280;41331;45.412;10.992;2024-03-23T08:14:12;100467.78;;;26.24;37.97
23433;BME280;41331;45.412;10.992;2024-03-23T08:16:39;100467.06;;;26.04;36.94
23433;BME280;41331;45.412;10.992;2024-03-23T08:19:06;100472.22;;;26.05;37.86
23433;BME280;41331;45.412;10.992;2024-03-23T08:21:35;100471.00;;;25.11;38.73
23433;BME280;41331;45.412;10.992;2024-03-23T08:24:01;100471.84;;;25.87;36.50
23433;BME280;41331;45.412;10.992;2024-03-23T08:26:28;100476.94;;;25.52;36.71
23433;BME280;41331;45.412;10.992;2024-03-23T08:28:54;100482.69;;;26.18;36.07
23433;BME280;41331;45.412;10.992;2024-03-23T08:31:21;100474.97;;;26.42;36.25
23433;BME280;41331;45.412;10.992;2024-03-23T08:33:48;100489.25;;;26.27;37.05
23433;BME280;41331;45.412;10.992;2024-03-23T08:36:14;100488.31;;;26.83;35.62
23433;BME280;41331;45.412;10.992;2024-03-23T08:38:41;100484.53;;;26.08;36.02
23433;BME280;41331;45.412;10.992;2024-03-23T08:41:10;100473.41;;;25.88;36.32
23433;BME280;41331;45.412;10.992;2024-03-23T08:43:38;100473.16;;;25.99;37.04
23433;BME280;41331;45.412;10.992;2024-03-23T08:46:10;100472.34;;;26.34;37.44
23433;BME280;41331;45.412;10.992;2024-03-23T08:48:38;100472.00;;;26.65;36.68
23433;BME280;41331;45.412;10.992;2024-03-23T08:51:07;100455.66;;;26.80;36.90
23433;BME280;41331;45.412;10.992;2024-03-23T08:53:38;100450.22;;;26.44;35.85
23433;BME280;41331;45.412;10.992;2024-03-23T08:56:06;100447.50;;;26.73;36.10
23433;BME280;41331;45.412;10.992;2024-03-23T08:58:33;100452.50;;;27.65;34.08
23433;BME280;41331;45.412;10.992;2024-03-23T09:01:06;100435.72;;;28.54;32.17
23433;BME280;41331;45.412;10.992;2024-03-23T09:03:33;100439.56;;;28.22;33.21
23433;BME280;41331;45.412;10.992;2024-03-23T09:06:06;100430.13;;;28.54;32.45
23433;BME280;41331;45.412;10.992;2024-03-23T09:08:32;100435.22;;;28.34;32.83
23433;BME280;41331;45.412;10.992;2024-03-23T09:11:04;100443.16;;;27.72;34.26
23433;BME280;41331;45.412;10.992;2024-03-23T09:13:33;100432.41;;;27.28;35.51
23433;BME280;41331;45.412;10.992;2024-03-23T09:16:01;100438.34;;;27.01;35.73
23433;BME280;41331;45.412;10.992;2024-03-23T09:18:28;100437.50;;;26.88;35.76
23433;BME280;41331;45.412;10.992;2024-03-23T09:20:54;100434.66;;;25.94;36.01
23433;BME280;41331;45.412;10.992;2024-03-23T09:23:21;100431.44;;;26.28;36.81
23433;BME280;41331;45.412;10.992;2024-03-23T09:25:48;100428.66;;;26.28;37.23
23433;BME280;41331;45.412;10.992;2024-03-23T09:28:15;100421.47;;;27.21;36.77
23433;BME280;41331;45.412;10.992;2024-03-23T09:30:41;100422.34;;;27.18;36.18
23433;BME280;41331;45.412;10.992;2024-03-23T09:33:12;100413.09;;;27.21;35.96
23433;BME280;41331;45.412;10.992;2024-03-23T09:35:40;100409.19;;;26.73;34.67
23433;BME280;41331;45.412;10.992;2024-03-23T09:38:07;100409.84;;;27.23;35.94
23433;BME280;41331;45.412;10.992;2024-03-23T09:40:40;100403.44;;;26.64;37.10
23433;BME280;41331;45.412;10.992;2024-03-23T09:43:09;100414.34;;;27.33;34.55
23433;BME280;41331;45.412;10.992;2024-03-23T09:45:40;100423.53;;;27.46;35.79
23433;BME280;41331;45.412;10.992;2024-03-23T09:48:09;100411.66;;;27.55;35.36
23433;BME280;41331;45.412;10.992;2024-03-23T09:50:40;100413.59;;;26.87;35.64
23433;BME280;41331;45.412;10.992;2024-03-23T09:53:08;100410.47;;;27.69;35.35
23433;BME280;41331;45.412;10.992;2024-03-23T09:55:35;100395.72;;;27.94;34.29
23433;BME280;41331;45.412;10.992;2024-03-23T09:58:02;100401.81;;;27.50;34.88
23433;BME280;41331;45.412;10.992;2024-03-23T10:00:32;100401.53;;;27.74;34.44
23433;BME280;41331;45.412;10.992;2024-03-23T10:02:59;100396.16;;;27.67;35.66
23433;BME280;41331;45.412;10.992;2024-03-23T10:05:29;100397.41;;;26.82;36.35
23433;BME280;41331;45.412;10.992;2024-03-23T10:07:55;100381.75;;;26.39;36.11
23433;BME280;41331;45.412;10.992;2024-03-23T10:10:25;100377.38;;;26.38;36.34
23433;BME280;41331;45.412;10.992;2024-03-23T10:12:51;100358.25;;;27.53;35.11
23433;BME280;41331;45.412;10.992;2024-03-23T10:15:24;100357.41;;;26.40;36.06
23433;BME280;41331;45.412;10.992;2024-03-23T10:17:51;100351.53;;;27.50;34.75
23433;BME280;41331;45.412;10.992;2024-03-23T10:20:22;100348.69;;;26.54;35.55
23433;BME280;41331;45.412;10.992;2024-03-23T10:22:50;100331.41;;;26.59;37.43
23433;BME280;41331;45.412;10.992;2024-03-23T10:25:22;100317.84;;;27.16;35.40
23433;BME280;41331;45.412;10.992;2024-03-23T10:27:58;100314.03;;;27.09;35.09
23433;BME280;41331;45.412;10.992;2024-03-23T10:30:26;100319.00;;;27.44;34.93
23433;BME280;41331;45.412;10.992;2024-03-23T10:33:10;100315.13;;;26.57;35.43
23433;BME280;41331;45.412;10.992;2024-03-23T10:35:38;100310.66;;;25.66;37.78
23433;BME280;41331;45.412;10.992;2024-03-23T10:38:05;100305.22;;;27.24;34.75
23433;BME280;41331;45.412;10.992;2024-03-23T10:40:36;100307.19;;;26.98;36.06
23433;BME280;41331;45.412;10.992;2024-03-23T10:43:06;100301.47;;;26.89;35.84
23433;BME280;41331;45.412;10.992;2024-03-23T10:45:34;100300.47;;;26.53;35.63
23433;BME280;41331;45.412;10.992;2024-03-23T10:48:01;100294.16;;;26.20;35.17
23433;BME280;41331;45.412;10.992;2024-03-23T10:50:29;100295.41;;;26.03;38.04
23433;BME280;41331;45.412;10.992;2024-03-23T10:52:57;100286.06;;;26.55;36.19
23433;BME280;41331;45.412;10.992;2024-03-23T10:55:26;100288.72;;;26.29;35.70
23433;BME280;41331;45.412;10.992;2024-03-23T10:57:55;100283.81;;;26.21;38.31
23433;BME280;41331;45.412;10.992;2024-03-23T11:00:25;100280.53;;;25.77;38.12
23433;BME280;41331;45.412;10.992;2024-03-23T11:02:52;100268.63;;;26.22;36.47
23433;BME280;41331;45.412;10.992;2024-03-23T11:07:53;100258.31;;;25.41;39.69
23433;BME280;41331;45.412;10.992;2024-03-23T11:10:30;100259.97;;;25.87;38.92
23433;BME280;41331;45.412;10.992;2024-03-23T11:12:57;100250.75;;;26.19;36.88
23433;BME280;41331;45.412;10.992;2024-03-23T11:15:24;100247.50;;;25.75;39.20
23433;BME280;41331;45.412;10.992;2024-03-23T11:18:07;100240.75;;;26.22;38.93
23433;BME280;41331;45.412;10.992;2024-03-23T11:20:35;100232.53;;;25.53;37.54
23433;BME280;41331;45.412;10.992;2024-03-23T11:23:02;100237.56;;;25.25;39.73
23433;BME280;41331;45.412;10.992;2024-03-23T11:25:29;100219.72;;;25.72;37.96
23433;BME280;41331;45.412;10.992;2024-03-23T11:28:18;100215.69;;;25.89;38.97
23433;BME280;41331;45.412;10.992;2024-03-23T11:30:44;100209.13;;;25.50;38.33
23433;BME280;41331;45.412;10.992;2024-03-23T11:33:11;100196.09;;;25.60;38.19
23433;BME280;41331;45.412;10.992;2024-03-23T11:35:39;100200.66;;;25.38;39.18
23433;BME280;41331;45.412;10.992;2024-03-23T11:38:14;100194.69;;;25.03;38.20
23433;BME280;41331;45.412;10.992;2024-03-23T11:40:45;100186.72;;;25.54;39.27
23433;BME280;41331;45.412;10.992;2024-03-23T11:43:14;100180.31;;;24.88;40.71
23433;BME280;41331;45.412;10.992;2024-03-23T11:45:45;100172.44;;;23.64;40.90
23433;BME280;41331;45.412;10.992;2024-03-23T11:48:14;100164.13;;;22.86;44.85
23433;BME280;41331;45.412;10.992;2024-03-23T11:50:43;100160.66;;;22.79;44.12
23433;BME280;41331;45.412;10.992;2024-03-23T11:55:52;100147.94;;;24.22;43.07
23433;BME280;41331;45.412;10.992;2024-03-23T11:58:21;100149.94;;;24.01;39.95
23433;BME280;41331;45.412;10.992;2024-03-23T12:00:58;100134.28;;;24.84;38.42
23433;BME280;41331;45.412;10.992;2024-03-23T12:03:26;100133.25;;;24.94;38.71
23433;BME280;41331;45.412;10.992;2024-03-23T12:05:56;100131.84;;;24.69;39.13
23433;BME280;41331;45.412;10.992;2024-03-23T12:08:29;100124.78;;;24.65;39.23
23433;BME280;41331;45.412;10.992;2024-03-23T12:11:11;100128.72;;;24.84;38.97
23433;BME280;41331;45.412;10.992;2024-03-23T12:13:40;100120.75;;;24.29;41.25
23433;BME280;41331;45.412;10.992;2024-03-23T12:16:21;100119.88;;;23.30;43.00
23433;BME280;41331;45.412;10.992;2024-03-23T12:18:48;100110.56;;;23.40;43.17
23433;BME280;41331;45.412;10.992;2024-03-23T12:21:16;100100.44;;;24.13;39.68
23433;BME280;41331;45.412;10.992;2024-03-23T12:23:43;100079.50;;;25.29;37.51
23433;BME280;41331;45.412;10.992;2024-03-23T12:26:15;100072.25;;;25.48;38.87
23433;BME280;41331;45.412;10.992;2024-03-23T12:28:42;100079.78;;;25.19;37.40
23433;BME280;41331;45.412;10.992;2024-03-23T12:31:10;100075.22;;;25.25;39.01
23433;BME280;41331;45.412;10.992;2024-03-23T12:33:37;100076.16;;;24.37;38.58
23433;BME280;41331;45.412;10.992;2024-03-23T12:36:04;100068.03;;;23.86;40.34
23433;BME280;41331;45.412;10.992;2024-03-23T12:38:30;100063.75;;;24.21;40.26
23433;BME280;41331;45.412;10.992;2024-03-23T12:40:57;100055.41;;;24.74;38.55
23433;BME280;41331;45.412;10.992;2024-03-23T12:43:24;100053.06;;;24.20;41.43
23433;BME280;41331;45.412;10.992;2024-03-23T12:45:50;100050.44;;;23.73;40.35
23433;BME280;41331;45.412;10.992;2024-03-23T12:48:17;100045.09;;;23.39;40.79
23433;BME280;41331;45.412;10.992;2024-03-23T12:50:44;100036.88;;;22.88;40.88
23433;BME280;41331;45.412;10.992;2024-03-23T12:53:11;100033.41;;;22.81;41.25
23433;BME280;41331;45.412;10.992;2024-03-23T12:55:37;100021.34;;;22.94;42.09
23433;BME280;41331;45.412;10.992;2024-03-23T12:58:04;100022.38;;;23.67;42.58
23433;BME280;41331;45.412;10.992;2024-03-23T13:00:31;100018.06;;;22.99;40.95
23433;BME280;41331;45.412;10.992;2024-03-23T13:02:57;100010.31;;;22.37;41.58
23433;BME280;41331;45.412;10.992;2024-03-23T13:05:24;100024.34;;;21.61;43.37
23433;BME280;41331;45.412;10.992;2024-03-23T13:07:51;100001.69;;;22.31;43.67
23433;BME280;41331;45.412;10.992;2024-03-23T13:10:17;100004.75;;;22.10;44.62
23433;BME280;41331;45.412;10.992;2024-03-23T13:12:44;100007.97;;;21.40;46.71
23433;BME280;41331;45.412;10.992;2024-03-23T13:15:11;100019.81;;;20.99;47.73
23433;BME280;41331;45.412;10.992;2024-03-23T13:17:37;100013.44;;;21.47;47.41
23433;BME280;41331;45.412;10.992;2024-03-23T13:20:04;100014.16;;;21.55;46.40
23433;BME280;41331;45.412;10.992;2024-03-23T13:22:31;100015.44;;;21.43;47.05
23433;BME280;41331;45.412;10.992;2024-03-23T13:24:58;100010.56;;;21.16;47.60
23433;BME280;41331;45.412;10.992;2024-03-23T13:27:26;100006.91;;;21.30;47.01
23433;BME280;41331;45.412;10.992;2024-03-23T13:29:52;100008.22;;;21.11;47.14
23433;BME280;41331;45.412;10.992;2024-03-23T13:32:20;100014.81;;;21.66;46.83
23433;BME280;41331;45.412;10.992;2024-03-23T13:34:46;100007.09;;;21.46;47.28
23433;BME280;41331;45.412;10.992;2024-03-23T13:37:16;100006.19;;;21.19;47.56
23433;BME280;41331;45.412;10.992;2024-03-23T13:39:43;99989.44;;;21.33;48.74